createdAt,value
2018-11-26T00:00:15.908Z,25.27
2018-11-26T00:02:44.287Z,22.90
2018-11-26T00:05:12.711Z,22.87
2018-11-26T00:07:40.890Z,20.37
2018-11-26T00:10:20.339Z,25.07
2018-11-26T00:12:48.759Z,22.70
2018-11-26T00:15:16.930Z,20.43
2018-11-26T00:17:45.365Z,23.50
2018-11-26T00:20:13.531Z,20.63
2018-11-26T00:22:41.717Z,23.13
2018-11-26T00:25:09.919Z,24.23
2018-11-26T00:27:38.107Z,23.80
2018-11-26T00:30:07.298Z,20.77
2018-11-26T00:32:35.480Z,20.97
2018-11-26T00:35:03.675Z,21.57
2018-11-26T00:37:32.113Z,20.30
2018-11-26T00:40:00.334Z,21.43
2018-11-26T00:42:28.537Z,21.43
2018-11-26T00:44:56.707Z,21.17
2018-11-26T00:47:24.901Z,22.60
2018-11-26T00:49:53.097Z,23.10
2018-11-26T00:52:21.273Z,21.40
2018-11-26T00:54:49.474Z,23.53
2018-11-26T00:57:17.645Z,21.53
2018-11-26T00:59:45.859Z,21.30
2018-11-26T01:02:14.035Z,24.70
2018-11-26T01:04:42.224Z,20.83
2018-11-26T01:07:10.412Z,21.50
2018-11-26T01:09:38.640Z,20.80
2018-11-26T01:12:07.093Z,24.70
2018-11-26T01:14:35.306Z,21.93
2018-11-26T01:17:03.477Z,20.17
2018-11-26T01:19:31.699Z,23.43
2018-11-26T01:21:59.872Z,21.50
2018-11-26T01:24:28.283Z,20.73
2018-11-26T01:26:56.477Z,19.97
2018-11-26T01:29:24.666Z,20.07
2018-11-26T01:31:52.895Z,20.17
2018-11-26T01:34:21.151Z,20.87
2018-11-26T01:36:49.317Z,20.43
2018-11-26T01:39:17.519Z,21.57
2018-11-26T01:41:45.697Z,24.47
2018-11-26T01:44:13.898Z,22.50
2018-11-26T01:46:42.080Z,20.23
2018-11-26T01:49:10.262Z,20.93
2018-11-26T01:51:38.466Z,24.20
2018-11-26T01:54:07.061Z,24.70
2018-11-26T01:56:35.278Z,20.80
2018-11-26T01:59:03.704Z,21.37
2018-11-26T02:01:32.108Z,22.33
2018-11-26T02:04:00.335Z,22.73
2018-11-26T02:06:28.515Z,23.33
2018-11-26T02:08:56.730Z,21.83
2018-11-26T02:11:24.946Z,23.63
2018-11-26T02:13:53.124Z,24.57
2018-11-26T02:16:21.532Z,23.33
2018-11-26T02:18:49.713Z,22.00
2018-11-26T02:21:18.161Z,25.53
2018-11-26T02:23:46.560Z,24.80
2018-11-26T02:26:14.761Z,22.90
2018-11-26T02:28:42.972Z,22.83
2018-11-26T02:31:11.438Z,25.63
2018-11-26T02:33:39.645Z,23.00
2018-11-26T02:36:08.216Z,27.97
2018-11-26T02:38:36.434Z,25.37
2018-11-26T02:41:04.643Z,23.93
2018-11-26T02:43:32.883Z,23.13
2018-11-26T02:46:01.069Z,24.63
2018-11-26T02:48:29.240Z,26.77
2018-11-26T02:50:57.440Z,25.07
2018-11-26T02:53:25.843Z,25.40
2018-11-26T02:55:54.484Z,22.80
2018-11-26T02:58:22.648Z,27.63
2018-11-26T03:00:50.869Z,29.00
2018-11-26T03:03:19.060Z,24.33
2018-11-26T03:05:47.278Z,24.27
2018-11-26T03:08:15.452Z,25.70
2018-11-26T03:10:43.628Z,27.27
2018-11-26T03:13:12.756Z,30.83
2018-11-26T03:15:40.921Z,28.03
2018-11-26T03:18:09.096Z,27.10
2018-11-26T03:20:37.285Z,28.90
2018-11-26T03:23:06.492Z,26.97
2018-11-26T03:25:34.672Z,26.70
2018-11-26T03:28:03.099Z,28.00
2018-11-26T03:30:31.287Z,25.27
2018-11-26T03:32:59.504Z,31.13
2018-11-26T03:35:27.710Z,31.50
2018-11-26T03:37:55.876Z,29.57
2018-11-26T03:40:24.077Z,26.97
2018-11-26T03:42:52.492Z,35.90
2018-11-26T03:45:20.958Z,28.43
2018-11-26T03:47:49.128Z,28.57
2018-11-26T03:50:17.333Z,33.67
2018-11-26T03:52:45.936Z,32.97
2018-11-26T03:55:14.343Z,33.30
2018-11-26T03:57:42.743Z,31.33
2018-11-26T04:00:13.326Z,30.20
2018-11-26T04:02:41.518Z,34.63
2018-11-26T04:05:10.170Z,38.17
2018-11-26T04:07:38.593Z,35.03
2018-11-26T04:10:08.444Z,32.10
2018-11-26T04:12:36.671Z,37.13
2018-11-26T04:15:05.619Z,34.90
2018-11-26T04:17:33.843Z,37.73
2018-11-26T04:20:02.016Z,36.63
2018-11-26T04:22:30.204Z,39.03
2018-11-26T04:24:58.396Z,36.27
2018-11-26T04:27:26.593Z,40.00
2018-11-26T04:29:55.024Z,33.93
2018-11-26T04:32:23.204Z,33.03
2018-11-26T04:34:51.380Z,36.47
2018-11-26T04:37:19.563Z,35.33
2018-11-26T04:39:47.736Z,34.53
2018-11-26T04:42:16.165Z,38.07
2018-11-26T04:44:44.369Z,38.47
2018-11-26T04:47:12.563Z,36.20
2018-11-26T04:49:40.740Z,41.57
2018-11-26T04:52:09.198Z,35.23
2018-11-26T04:54:37.401Z,34.33
2018-11-26T04:57:05.940Z,42.90
2018-11-26T04:59:34.128Z,39.60
2018-11-26T05:02:06.133Z,40.40
2018-11-26T05:04:34.308Z,42.63
2018-11-26T05:07:02.500Z,45.77
2018-11-26T05:09:30.698Z,45.13
2018-11-26T05:11:58.884Z,33.83
2018-11-26T05:14:27.072Z,39.20
2018-11-26T05:16:55.332Z,35.47
2018-11-26T05:19:23.513Z,36.90
2018-11-26T05:21:51.704Z,38.50
2018-11-26T05:24:20.170Z,33.57
2018-11-26T05:26:48.572Z,40.10
2018-11-26T05:29:16.773Z,37.10
2018-11-26T05:31:44.954Z,45.50
2018-11-26T05:34:13.194Z,33.20
2018-11-26T05:36:41.410Z,31.23
2018-11-26T05:39:09.615Z,40.23
2018-11-26T05:41:37.789Z,35.57
2018-11-26T05:44:05.977Z,39.53
2018-11-26T05:46:34.182Z,37.90
2018-11-26T05:49:02.585Z,37.27
2018-11-26T05:51:30.797Z,37.73
2018-11-26T05:53:59.029Z,35.97
2018-11-26T05:56:27.233Z,33.80
2018-11-26T05:58:55.420Z,33.10
2018-11-26T06:01:23.607Z,35.20
2018-11-26T06:03:51.834Z,37.57
2018-11-26T06:06:20.016Z,36.93
2018-11-26T06:08:48.200Z,37.37
2018-11-26T06:11:16.406Z,38.20
2018-11-26T06:13:44.804Z,30.60
2018-11-26T06:16:13.249Z,34.33
2018-11-26T06:18:41.433Z,35.67
2018-11-26T06:21:09.650Z,36.17
2018-11-26T06:23:37.828Z,38.00
2018-11-26T06:26:06.039Z,35.23
2018-11-26T06:28:34.244Z,33.33
2018-11-26T06:31:02.415Z,37.40
2018-11-26T06:33:30.622Z,33.53
2018-11-26T06:35:58.784Z,38.57
2018-11-26T06:38:27.006Z,33.70
2018-11-26T06:40:55.188Z,38.63
2018-11-26T06:43:23.410Z,36.77
2018-11-26T06:45:51.585Z,37.73
2018-11-26T06:48:19.862Z,33.10
2018-11-26T06:50:48.048Z,41.03
2018-11-26T06:53:16.449Z,34.63
2018-11-26T06:55:44.624Z,41.17
2018-11-26T06:58:12.800Z,33.90
2018-11-26T07:00:41.004Z,36.63
2018-11-26T07:03:09.169Z,38.53
2018-11-26T07:05:37.368Z,39.33
2018-11-26T07:08:05.622Z,34.07
2018-11-26T07:10:33.948Z,39.87
2018-11-26T07:13:02.150Z,38.73
2018-11-26T07:15:30.339Z,35.20
2018-11-26T07:17:58.956Z,41.37
2018-11-26T07:20:27.414Z,37.77
2018-11-26T07:22:55.588Z,34.00
2018-11-26T07:25:23.780Z,43.17
2018-11-26T07:27:53.551Z,44.80
2018-11-26T07:30:26.278Z,41.60
2018-11-26T07:32:54.482Z,44.67
2018-11-26T07:35:22.680Z,37.80
2018-11-26T07:37:50.856Z,34.93
2018-11-26T07:40:21.661Z,37.37
2018-11-26T07:42:52.433Z,34.93
2018-11-26T07:45:20.849Z,35.00
2018-11-26T07:47:49.028Z,39.43
2018-11-26T07:50:17.678Z,39.87
2018-11-26T07:52:45.851Z,34.60
2018-11-26T07:55:15.356Z,41.03
2018-11-26T07:57:43.601Z,42.13
2018-11-26T08:00:16.907Z,38.50
2018-11-26T08:02:45.549Z,34.00
2018-11-26T08:05:14.875Z,40.67
2018-11-26T08:07:43.057Z,37.90
2018-11-26T08:10:13.936Z,37.07
2018-11-26T08:12:42.192Z,36.53
2018-11-26T08:15:12.829Z,36.10
2018-11-26T08:17:41.585Z,43.37
2018-11-26T08:20:10.252Z,38.47
2018-11-26T08:22:38.434Z,35.33
2018-11-26T08:25:09.325Z,31.70
2018-11-26T08:27:37.831Z,31.80
2018-11-26T08:30:36.898Z,25.83
2018-11-26T08:33:05.948Z,25.37
2018-11-26T08:35:34.191Z,27.87
2018-11-26T08:38:07.346Z,29.87
2018-11-26T08:40:41.190Z,26.30
2018-11-26T08:43:14.720Z,28.40
2018-11-26T08:45:49.452Z,27.87
2018-11-26T08:48:23.152Z,28.63
2018-11-26T08:50:51.351Z,27.43
2018-11-26T08:53:19.563Z,31.40
2018-11-26T08:55:48.018Z,30.70
2018-11-26T08:58:16.200Z,38.03
2018-11-26T09:00:44.386Z,34.90
2018-11-26T09:03:17.929Z,30.63
2018-11-26T09:05:50.374Z,36.07
2018-11-26T09:08:18.768Z,36.60
2018-11-26T09:10:46.965Z,32.47
2018-11-26T09:13:15.151Z,34.63
2018-11-26T09:15:43.618Z,37.40
2018-11-26T09:18:11.834Z,35.77
2018-11-26T09:20:40.054Z,36.37
2018-11-26T09:23:08.237Z,39.80
2018-11-26T09:25:36.440Z,35.03
2018-11-26T09:28:04.731Z,37.00
2018-11-26T09:30:32.967Z,39.93
2018-11-26T09:33:01.992Z,35.07
2018-11-26T09:35:30.189Z,32.23
2018-11-26T09:37:58.390Z,32.00
2018-11-26T09:40:26.577Z,34.00
2018-11-26T09:42:54.790Z,37.10
2018-11-26T09:45:22.993Z,31.83
2018-11-26T09:47:51.222Z,28.67
2018-11-26T09:50:21.096Z,32.57
2018-11-26T09:52:49.271Z,34.13
2018-11-26T09:55:17.501Z,34.67
2018-11-26T09:57:45.956Z,25.43
2018-11-26T10:00:16.746Z,28.53
2018-11-26T10:02:49.243Z,29.37
2018-11-26T10:05:18.678Z,29.53
2018-11-26T10:07:47.100Z,29.90
2018-11-26T10:10:15.361Z,26.63
2018-11-26T10:12:44.108Z,27.03
2018-11-26T10:15:21.665Z,30.00
2018-11-26T10:17:49.907Z,26.47
2018-11-26T10:20:18.100Z,29.70
2018-11-26T10:22:46.711Z,26.47
2018-11-26T10:25:17.132Z,26.40
2018-11-26T10:27:45.324Z,27.63
2018-11-26T10:30:14.692Z,26.43
2018-11-26T10:32:43.141Z,22.90
2018-11-26T10:35:13.320Z,24.60
2018-11-26T10:37:41.743Z,25.70
2018-11-26T10:40:13.190Z,26.47
2018-11-26T10:42:41.386Z,28.53
2018-11-26T10:45:11.793Z,29.67
2018-11-26T10:47:39.985Z,24.30
2018-11-26T10:50:11.876Z,28.57
2018-11-26T10:52:41.273Z,29.80
2018-11-26T10:55:12.442Z,25.33
2018-11-26T10:57:40.636Z,27.70
2018-11-26T11:00:16.140Z,29.93
2018-11-26T11:02:44.699Z,32.53
2018-11-26T11:05:12.881Z,28.03
2018-11-26T11:07:41.065Z,30.90
2018-11-26T11:10:11.204Z,38.03
2018-11-26T11:12:39.501Z,51.97
2018-11-26T11:15:09.788Z,59.37
2018-11-26T11:17:38.007Z,55.17
2018-11-26T11:20:09.729Z,107.63
2018-11-26T11:22:38.048Z,77.67
2018-11-26T11:25:07.135Z,60.87
2018-11-26T11:27:35.313Z,27.87
2018-11-26T11:30:06.022Z,57.43
2018-11-26T11:32:34.218Z,32.63
2018-11-26T11:35:02.435Z,25.60
2018-11-26T11:37:30.650Z,29.97
2018-11-26T11:39:59.055Z,25.33
2018-11-26T11:42:27.271Z,26.10
2018-11-26T11:44:55.450Z,24.43
2018-11-26T11:47:23.723Z,27.87
2018-11-26T11:49:51.931Z,24.67
2018-11-26T11:52:20.117Z,22.50
2018-11-26T11:54:48.318Z,25.17
2018-11-26T11:57:16.547Z,26.33
2018-11-26T11:59:44.721Z,32.43
2018-11-26T12:02:16.057Z,39.57
2018-11-26T12:04:41.550Z,32.17
2018-11-26T12:07:09.745Z,34.67
2018-11-26T12:09:37.966Z,24.83
2018-11-26T12:12:06.158Z,31.70
2018-11-26T12:14:34.522Z,26.70
2018-11-26T12:17:03.024Z,31.90
2018-11-26T12:19:31.382Z,26.43
2018-11-26T12:21:59.546Z,25.90
2018-11-26T12:24:27.768Z,28.93
2018-11-26T12:26:55.979Z,30.30
2018-11-26T12:29:24.195Z,26.60
2018-11-26T12:31:52.433Z,28.77
2018-11-26T12:34:20.649Z,31.00
2018-11-26T12:36:49.047Z,37.43
2018-11-26T12:39:17.454Z,35.83
2018-11-26T12:41:45.625Z,30.83
2018-11-26T12:44:13.852Z,30.80
2018-11-26T12:46:42.037Z,32.87
2018-11-26T12:49:10.246Z,32.70
2018-11-26T12:51:38.487Z,35.43
2018-11-26T12:54:06.715Z,33.10
2018-11-26T12:56:34.939Z,34.73
2018-11-26T12:59:03.148Z,31.30
2018-11-26T13:01:31.422Z,34.13
2018-11-26T13:03:59.745Z,33.17
2018-11-26T13:06:28.149Z,34.50
2018-11-26T13:08:56.340Z,31.20
2018-11-26T13:11:24.526Z,31.30
2018-11-26T13:13:52.739Z,35.37
2018-11-26T13:16:20.913Z,36.37
2018-11-26T13:18:49.378Z,30.43
2018-11-26T13:21:17.546Z,36.20
2018-11-26T13:23:45.995Z,33.73
2018-11-26T13:26:14.216Z,31.83
2018-11-26T13:28:42.411Z,35.23
2018-11-26T13:31:10.586Z,32.90
2018-11-26T13:33:38.782Z,31.73
2018-11-26T13:36:07.125Z,42.83
2018-11-26T13:38:35.312Z,44.70
2018-11-26T13:41:03.705Z,36.37
2018-11-26T13:43:32.122Z,40.33
2018-11-26T13:46:00.335Z,34.20
2018-11-26T13:48:28.522Z,32.27
2018-11-26T13:50:57.040Z,30.53
2018-11-26T13:53:25.234Z,36.13
2018-11-26T13:55:53.437Z,40.37
2018-11-26T13:58:21.652Z,39.30
2018-11-26T14:00:50.085Z,35.50
2018-11-26T14:03:18.352Z,38.17
2018-11-26T14:05:46.559Z,38.40
2018-11-26T14:08:14.745Z,39.40
2018-11-26T14:10:42.926Z,42.17
2018-11-26T14:13:13.717Z,41.57
2018-11-26T14:15:41.981Z,38.53
2018-11-26T14:18:10.170Z,38.03
2018-11-26T14:20:38.374Z,41.47
2018-11-26T14:23:07.698Z,44.33
2018-11-26T14:25:35.890Z,40.83
2018-11-26T14:28:04.086Z,41.90
2018-11-26T14:30:32.277Z,35.03
2018-11-26T14:33:00.458Z,39.00
2018-11-26T14:35:28.653Z,45.70
2018-11-26T14:38:00.462Z,47.37
2018-11-26T14:40:31.846Z,36.90
2018-11-26T14:43:00.071Z,38.63
2018-11-26T14:45:28.299Z,40.30
2018-11-26T14:47:56.736Z,43.97
2018-11-26T14:50:24.937Z,44.07
2018-11-26T14:52:53.138Z,39.60
2018-11-26T14:55:23.401Z,43.10
2018-11-26T14:57:51.609Z,41.93
2018-11-26T15:00:20.714Z,40.40
2018-11-26T15:02:48.928Z,41.30
2018-11-26T15:05:17.193Z,38.67
2018-11-26T15:07:45.574Z,38.97
2018-11-26T15:10:16.050Z,44.47
2018-11-26T15:12:44.786Z,41.80
2018-11-26T15:15:15.026Z,43.20
2018-11-26T15:17:43.856Z,41.60
2018-11-26T15:20:13.601Z,44.07
2018-11-26T15:22:43.462Z,41.87
2018-11-26T15:25:15.902Z,43.73
2018-11-26T15:27:44.338Z,44.63
2018-11-26T15:30:14.733Z,48.23
2018-11-26T15:32:43.695Z,58.80
2018-11-26T15:35:14.289Z,48.27
2018-11-26T15:37:42.513Z,43.03
2018-11-26T15:40:12.028Z,40.47
2018-11-26T15:42:40.253Z,38.80
2018-11-26T15:45:13.927Z,44.23
2018-11-26T15:47:42.139Z,42.53
2018-11-26T15:50:10.463Z,46.03
2018-11-26T15:52:38.987Z,41.77
2018-11-26T15:55:09.113Z,44.30
2018-11-26T15:57:37.563Z,43.73
2018-11-26T16:00:12.547Z,43.93
2018-11-26T16:02:40.783Z,48.57
2018-11-26T16:05:11.778Z,45.97
2018-11-26T16:07:40.283Z,44.60
2018-11-26T16:10:11.017Z,40.83
2018-11-26T16:12:39.674Z,40.90
2018-11-26T16:15:19.857Z,40.80
2018-11-26T16:17:48.202Z,41.20
2018-11-26T16:20:18.275Z,48.13
2018-11-26T16:22:46.803Z,42.33
2018-11-26T16:25:16.518Z,43.17
2018-11-26T16:27:44.890Z,37.40
2018-11-26T16:30:15.315Z,37.40
2018-11-26T16:32:46.064Z,40.57
2018-11-26T16:35:15.994Z,41.77
2018-11-26T16:37:44.382Z,40.53
2018-11-26T16:40:13.877Z,39.67
2018-11-26T16:42:42.170Z,42.63
2018-11-26T16:45:18.303Z,45.43
2018-11-26T16:47:47.879Z,39.90
2018-11-26T16:50:17.419Z,45.10
2018-11-26T16:52:45.711Z,46.33
2018-11-26T16:55:14.957Z,37.00
2018-11-26T16:57:43.349Z,39.07
2018-11-26T17:00:16.972Z,41.70
2018-11-26T17:02:45.971Z,32.93
2018-11-26T17:05:18.660Z,36.50
2018-11-26T17:07:46.898Z,38.20
2018-11-26T17:10:15.251Z,43.53
2018-11-26T17:12:43.500Z,39.47
2018-11-26T17:15:12.949Z,44.10
2018-11-26T17:17:41.182Z,40.77
2018-11-26T17:20:11.728Z,41.43
2018-11-26T17:22:40.129Z,43.90
2018-11-26T17:25:09.836Z,46.10
2018-11-26T17:27:38.906Z,53.13
2018-11-26T17:30:14.262Z,46.10
2018-11-26T17:32:42.513Z,47.87
2018-11-26T17:35:12.155Z,43.67
2018-11-26T17:37:42.787Z,42.70
2018-11-26T17:40:12.582Z,43.07
2018-11-26T17:42:40.754Z,47.13
2018-11-26T17:45:10.838Z,43.47
2018-11-26T17:47:39.326Z,46.03
2018-11-26T17:50:12.098Z,53.53
2018-11-26T17:52:40.355Z,43.10
2018-11-26T17:55:09.649Z,44.07
2018-11-26T17:57:37.983Z,43.27
2018-11-26T18:00:10.397Z,40.03
2018-11-26T18:02:38.611Z,44.47
2018-11-26T18:05:11.018Z,50.43
2018-11-26T18:07:39.474Z,44.07
2018-11-26T18:10:11.164Z,49.23
2018-11-26T18:12:39.504Z,39.37
2018-11-26T18:15:12.857Z,55.30
2018-11-26T18:17:41.247Z,39.07
2018-11-26T18:20:12.765Z,42.53
2018-11-26T18:22:40.983Z,45.30
2018-11-26T18:25:10.442Z,54.03
2018-11-26T18:27:40.349Z,41.10
2018-11-26T18:30:17.782Z,44.03
2018-11-26T18:32:46.033Z,42.60
2018-11-26T18:35:14.738Z,43.10
2018-11-26T18:37:43.161Z,42.73
2018-11-26T18:40:13.637Z,36.63
2018-11-26T18:42:41.844Z,40.83
2018-11-26T18:45:15.398Z,40.63
2018-11-26T18:47:44.148Z,42.97
2018-11-26T18:50:20.727Z,43.47
2018-11-26T18:52:50.301Z,38.50
2018-11-26T18:55:18.819Z,42.83
2018-11-26T18:57:47.035Z,41.50
2018-11-26T19:00:21.453Z,42.27
2018-11-26T19:02:50.227Z,38.30
2018-11-26T19:05:19.242Z,43.43
2018-11-26T19:07:47.449Z,51.07
2018-11-26T19:10:17.869Z,63.80
2018-11-26T19:12:48.636Z,58.17
2018-11-26T19:15:20.519Z,96.23
2018-11-26T19:17:49.208Z,86.23
2018-11-26T19:20:17.569Z,54.20
2018-11-26T19:22:45.805Z,56.20
2018-11-26T19:25:15.926Z,42.17
2018-11-26T19:27:44.124Z,43.30
2018-11-26T19:30:14.041Z,38.93
2018-11-26T19:32:43.422Z,41.53
2018-11-26T19:35:13.223Z,44.97
2018-11-26T19:37:41.462Z,40.17
2018-11-26T19:40:12.505Z,40.13
2018-11-26T19:42:41.457Z,49.43
2018-11-26T19:45:15.185Z,46.93
2018-11-26T19:47:43.392Z,51.10
2018-11-26T19:50:12.861Z,43.60
2018-11-26T19:52:41.461Z,41.17
2018-11-26T19:55:12.932Z,38.00
2018-11-26T19:57:41.165Z,38.67
2018-11-26T20:00:13.213Z,46.10
2018-11-26T20:02:41.542Z,41.73
2018-11-26T20:05:18.237Z,38.20
2018-11-26T20:07:46.425Z,39.90
2018-11-26T20:10:14.667Z,44.17
2018-11-26T20:12:42.939Z,45.47
2018-11-26T20:15:13.210Z,48.37
2018-11-26T20:17:41.530Z,45.00
2018-11-26T20:20:10.102Z,41.20
2018-11-26T20:22:38.494Z,36.83
2018-11-26T20:25:12.690Z,37.83
2018-11-26T20:27:41.145Z,33.00
2018-11-26T20:30:14.989Z,37.30
2018-11-26T20:32:45.222Z,34.17
2018-11-26T20:35:13.461Z,38.70
2018-11-26T20:37:41.854Z,37.63
2018-11-26T20:40:14.007Z,42.13
2018-11-26T20:42:46.887Z,37.67
2018-11-26T20:45:15.766Z,42.70
2018-11-26T20:47:44.839Z,41.30
2018-11-26T20:50:29.794Z,37.73
2018-11-26T20:52:58.101Z,42.80
2018-11-26T20:55:26.567Z,39.07
2018-11-26T20:57:56.011Z,39.97
2018-11-26T21:00:25.672Z,39.43
2018-11-26T21:02:54.965Z,45.73
2018-11-26T21:05:23.193Z,40.57
2018-11-26T21:07:51.521Z,36.20
2018-11-26T21:10:19.729Z,33.73
2018-11-26T21:12:47.913Z,38.00
2018-11-26T21:19:49.721Z,37.43
2018-11-26T21:22:15.463Z,37.50
2018-11-26T21:24:44.282Z,32.33
2018-11-26T21:27:12.615Z,32.70
2018-11-26T21:29:41.024Z,36.07
2018-11-26T21:32:09.309Z,37.77
2018-11-26T21:34:37.709Z,35.30
2018-11-26T21:37:06.394Z,38.20
2018-11-26T21:39:34.678Z,38.90
2018-11-26T21:42:03.159Z,38.03
2018-11-26T21:44:31.394Z,40.27
2018-11-26T21:46:59.874Z,39.97
2018-11-26T21:49:28.137Z,36.00
2018-11-26T21:51:56.365Z,40.00
2018-11-26T21:54:24.649Z,38.00
2018-11-26T21:56:53.710Z,37.63
2018-11-26T21:59:22.276Z,41.60
2018-11-26T22:01:50.543Z,38.40
2018-11-26T22:04:18.813Z,38.00
2018-11-26T22:06:47.055Z,38.30
2018-11-26T22:09:15.409Z,32.50
2018-11-26T22:11:43.639Z,35.50
2018-11-26T22:14:11.998Z,37.80
2018-11-26T22:16:40.085Z,39.33
2018-11-26T22:19:08.344Z,37.83
2018-11-26T22:21:36.571Z,37.10
2018-11-26T22:24:04.817Z,39.90
2018-11-26T22:26:33.065Z,35.40
2018-11-26T22:29:01.293Z,41.70
2018-11-26T22:31:29.517Z,40.03
2018-11-26T22:33:57.795Z,34.30
2018-11-26T22:36:26.025Z,33.93
2018-11-26T22:38:54.244Z,37.10
2018-11-26T22:41:22.462Z,37.73
2018-11-26T22:43:50.709Z,35.63
2018-11-26T22:46:18.943Z,39.07
2018-11-26T22:48:47.394Z,34.90
2018-11-26T22:51:15.607Z,38.07
2018-11-26T22:53:43.829Z,38.50
2018-11-26T22:56:12.078Z,35.03
2018-11-26T22:58:40.558Z,39.27
2018-11-26T23:01:09.003Z,38.17
2018-11-26T23:03:37.441Z,33.03
2018-11-26T23:06:06.067Z,36.20
2018-11-26T23:08:34.445Z,29.93
2018-11-26T23:11:02.651Z,33.63
2018-11-26T23:13:30.869Z,38.67
2018-11-26T23:15:59.081Z,36.53
2018-11-26T23:18:27.290Z,34.93
2018-11-26T23:20:55.721Z,36.73
2018-11-26T23:23:23.945Z,37.30
2018-11-26T23:25:52.162Z,37.13
2018-11-26T23:28:20.396Z,33.67
2018-11-26T23:30:48.833Z,38.50
2018-11-26T23:33:17.307Z,39.20
2018-11-26T23:35:45.794Z,37.63
2018-11-26T23:38:14.003Z,36.50
2018-11-26T23:40:42.224Z,30.40
2018-11-26T23:43:10.665Z,36.37
2018-11-26T23:45:38.897Z,32.43
2018-11-26T23:48:07.110Z,35.30
2018-11-26T23:50:36.117Z,38.83
2018-11-26T23:53:05.347Z,34.10
2018-11-26T23:55:33.560Z,37.20
2018-11-26T23:58:01.732Z,37.87
